sensor_id;sensor_type;location;lat;lon;timestamp;pressure;altitude;pressure_sealevel;temperature;humidity
69784;BME280;57054;51.978;4.498;2023-07-13T00:00:33;101366.78;;;17.94;83.08
69784;BME280;57054;51.978;4.498;2023-07-13T00:02:58;101375.56;;;17.94;83.13
69784;BME280;57054;51.978;4.498;2023-07-13T00:05:24;101364.22;;;17.92;83.08
69784;BME280;57054;51.978;4.498;2023-07-13T00:07:51;101373.00;;;17.93;82.96
69784;BME280;57054;51.978;4.498;2023-07-13T00:10:17;101372.16;;;17.92;82.57
69784;BME280;57054;51.978;4.498;2023-07-13T00:12:42;101364.50;;;17.88;82.47
69784;BME280;57054;51.978;4.498;2023-07-13T00:15:17;101367.22;;;17.86;82.70
69784;BME280;57054;51.978;4.498;2023-07-13T00:17:48;101378.84;;;17.83;82.97
69784;BME280;57054;51.978;4.498;2023-07-13T00:20:14;101381.59;;;17.82;83.20
69784;BME280;57054;51.978;4.498;2023-07-13T00:22:39;101384.53;;;17.77;83.58
69784;BME280;57054;51.978;4.498;2023-07-13T00:25:05;101379.34;;;17.76;83.44
69784;BME280;57054;51.978;4.498;2023-07-13T00:27:31;101381.03;;;17.77;83.46
69784;BME280;57054;51.978;4.498;2023-07-13T00:29:57;101378.47;;;17.75;83.44
69784;BME280;57054;51.978;4.498;2023-07-13T00:32:22;101386.31;;;17.77;83.42
69784;BME280;57054;51.978;4.498;2023-07-13T00:34:50;101376.59;;;17.77;83.23
69784;BME280;57054;51.978;4.498;2023-07-13T00:37:15;101381.03;;;17.77;82.91
69784;BME280;57054;51.978;4.498;2023-07-13T00:39:41;101374.97;;;17.75;83.08
69784;BME280;57054;51.978;4.498;2023-07-13T00:42:06;101372.50;;;17.72;83.26
69784;BME280;57054;51.978;4.498;2023-07-13T00:44:32;101371.66;;;17.71;83.04
69784;BME280;57054;51.978;4.498;2023-07-13T00:46:57;101371.75;;;17.70;83.07
69784;BME280;57054;51.978;4.498;2023-07-13T00:49:25;101371.75;;;17.70;83.02
69784;BME280;57054;51.978;4.498;2023-07-13T00:51:59;101374.63;;;17.67;83.05
69784;BME280;57054;51.978;4.498;2023-07-13T00:54:30;101374.78;;;17.63;83.56
69784;BME280;57054;51.978;4.498;2023-07-13T00:56:59;101381.91;;;17.63;83.63
69784;BME280;57054;51.978;4.498;2023-07-13T00:59:26;101379.25;;;17.63;83.42
69784;BME280;57054;51.978;4.498;2023-07-13T01:04:30;101375.19;;;17.57;83.66
69784;BME280;57054;51.978;4.498;2023-07-13T01:06:57;101377.72;;;17.59;83.26
69784;BME280;57054;51.978;4.498;2023-07-13T01:09:23;101372.53;;;17.57;83.22
69784;BME280;57054;51.978;4.498;2023-07-13T01:11:48;101379.69;;;17.55;83.27
69784;BME280;57054;51.978;4.498;2023-07-13T01:14:14;101383.31;;;17.54;83.33
69784;BME280;57054;51.978;4.498;2023-07-13T01:16:41;101383.31;;;17.54;83.38
69784;BME280;57054;51.978;4.498;2023-07-13T01:19:42;101389.53;;;17.53;83.43
69784;BME280;57054;51.978;4.498;2023-07-13T01:24:37;101392.28;;;17.52;83.08
69784;BME280;57054;51.978;4.498;2023-07-13T01:27:03;101400.22;;;17.52;83.00
69784;BME280;57054;51.978;4.498;2023-07-13T01:29:32;101405.91;;;17.45;82.74
69784;BME280;57054;51.978;4.498;2023-07-13T01:31:58;101401.75;;;17.41;82.82
69784;BME280;57054;51.978;4.498;2023-07-13T01:34:25;101399.56;;;17.34;82.46
69784;BME280;57054;51.978;4.498;2023-07-13T01:36:51;101398.69;;;17.33;82.35
69784;BME280;57054;51.978;4.498;2023-07-13T01:39:21;101403.97;;;17.33;82.46
69784;BME280;57054;51.978;4.498;2023-07-13T01:41:46;101400.50;;;17.33;82.10
69784;BME280;57054;51.978;4.498;2023-07-13T01:44:11;101405.78;;;17.33;81.70
69784;BME280;57054;51.978;4.498;2023-07-13T01:46:37;101402.31;;;17.32;81.21
69784;BME280;57054;51.978;4.498;2023-07-13T01:49:02;101405.13;;;17.29;81.00
69784;BME280;57054;51.978;4.498;2023-07-13T01:51:28;101399.81;;;17.29;81.05
69784;BME280;57054;51.978;4.498;2023-07-13T01:53:53;101405.13;;;17.29;80.72
69784;BME280;57054;51.978;4.498;2023-07-13T01:56:19;101405.28;;;17.26;80.76
69784;BME280;57054;51.978;4.498;2023-07-13T01:58:45;101407.19;;;17.24;80.37
69784;BME280;57054;51.978;4.498;2023-07-13T02:01:10;101403.88;;;17.20;80.13
69784;BME280;57054;51.978;4.498;2023-07-13T02:03:36;101408.41;;;17.18;80.32
69784;BME280;57054;51.978;4.498;2023-07-13T02:06:01;101404.84;;;17.19;80.40
69784;BME280;57054;51.978;4.498;2023-07-13T02:08:27;101416.34;;;17.18;80.35
69784;BME280;57054;51.978;4.498;2023-07-13T02:10:52;101412.00;;;17.17;80.47
69784;BME280;57054;51.978;4.498;2023-07-13T02:13:20;101403.19;;;17.17;80.30
69784;BME280;57054;51.978;4.498;2023-07-13T02:15:46;101411.22;;;17.15;80.60
69784;BME280;57054;51.978;4.498;2023-07-13T02:18:11;101408.69;;;17.14;80.50
69784;BME280;57054;51.978;4.498;2023-07-13T02:20:42;101409.72;;;17.11;80.71
69784;BME280;57054;51.978;4.498;2023-07-13T02:23:08;101404.41;;;17.11;80.87
69784;BME280;57054;51.978;4.498;2023-07-13T02:25:33;101397.53;;;17.08;80.83
69784;BME280;57054;51.978;4.498;2023-07-13T02:27:58;101404.72;;;17.06;81.32
69784;BME280;57054;51.978;4.498;2023-07-13T02:30:24;101405.53;;;17.07;81.30
69784;BME280;57054;51.978;4.498;2023-07-13T02:32:50;101396.84;;;17.05;81.74
69784;BME280;57054;51.978;4.498;2023-07-13T02:35:15;101403.91;;;17.04;82.14
69784;BME280;57054;51.978;4.498;2023-07-13T02:37:41;101408.44;;;17.02;82.88
69784;BME280;57054;51.978;4.498;2023-07-13T02:40:07;101411.09;;;17.02;83.16
69784;BME280;57054;51.978;4.498;2023-07-13T02:42:34;101405.81;;;17.02;83.56
69784;BME280;57054;51.978;4.498;2023-07-13T02:44:59;101409.41;;;17.01;83.60
69784;BME280;57054;51.978;4.498;2023-07-13T02:47:25;101406.75;;;17.01;84.14
69784;BME280;57054;51.978;4.498;2023-07-13T02:49:52;101412.06;;;17.01;84.11
69784;BME280;57054;51.978;4.498;2023-07-13T02:52:17;101403.16;;;17.02;84.41
69784;BME280;57054;51.978;4.498;2023-07-13T02:54:42;101401.38;;;17.03;84.71
69784;BME280;57054;51.978;4.498;2023-07-13T02:57:08;101407.53;;;17.03;84.85
69784;BME280;57054;51.978;4.498;2023-07-13T02:59:33;101416.38;;;17.02;85.70
69784;BME280;57054;51.978;4.498;2023-07-13T03:02:01;101409.31;;;17.03;86.12
69784;BME280;57054;51.978;4.498;2023-07-13T03:04:27;101408.44;;;17.02;85.96
69784;BME280;57054;51.978;4.498;2023-07-13T03:06:52;101410.16;;;17.03;86.67
69784;BME280;57054;51.978;4.498;2023-07-13T03:09:17;101407.53;;;17.03;86.84
69784;BME280;57054;51.978;4.498;2023-07-13T03:11:43;101418.94;;;17.04;86.93
69784;BME280;57054;51.978;4.498;2023-07-13T03:14:08;101411.00;;;17.04;87.12
69784;BME280;57054;51.978;4.498;2023-07-13T03:16:34;101419.78;;;17.04;87.31
69784;BME280;57054;51.978;4.498;2023-07-13T03:18:59;101414.50;;;17.04;87.35
69784;BME280;57054;51.978;4.498;2023-07-13T03:21:25;101409.22;;;17.04;87.58
69784;BME280;57054;51.978;4.498;2023-07-13T03:23:50;101412.72;;;17.05;87.66
69784;BME280;57054;51.978;4.498;2023-07-13T03:26:19;101402.16;;;17.05;87.50
69784;BME280;57054;51.978;4.498;2023-07-13T03:28:45;101415.28;;;17.06;87.99
69784;BME280;57054;51.978;4.498;2023-07-13T03:31:14;101410.94;;;17.05;87.99
69784;BME280;57054;51.978;4.498;2023-07-13T03:33:39;101420.59;;;17.06;87.88
69784;BME280;57054;51.978;4.498;2023-07-13T03:36:06;101414.41;;;17.06;88.43
69784;BME280;57054;51.978;4.498;2023-07-13T03:38:33;101417.94;;;17.06;88.45
69784;BME280;57054;51.978;4.498;2023-07-13T03:40:59;101419.53;;;17.09;88.22
69784;BME280;57054;51.978;4.498;2023-07-13T03:43:25;101424.84;;;17.09;88.30
69784;BME280;57054;51.978;4.498;2023-07-13T03:45:50;101424.91;;;17.07;88.52
69784;BME280;57054;51.978;4.498;2023-07-13T03:48:15;101426.63;;;17.08;88.33
69784;BME280;57054;51.978;4.498;2023-07-13T03:50:41;101420.38;;;17.10;88.34
69784;BME280;57054;51.978;4.498;2023-07-13T03:53:07;101427.38;;;17.11;88.38
69784;BME280;57054;51.978;4.498;2023-07-13T03:55:32;101427.38;;;17.11;88.28
69784;BME280;57054;51.978;4.498;2023-07-13T03:58:06;101428.31;;;17.10;88.47
69784;BME280;57054;51.978;4.498;2023-07-13T04:00:45;101434.50;;;17.10;88.70
69784;BME280;57054;51.978;4.498;2023-07-13T04:03:10;101433.53;;;17.11;88.47
69784;BME280;57054;51.978;4.498;2023-07-13T04:05:36;101437.91;;;17.12;88.32
69784;BME280;57054;51.978;4.498;2023-07-13T04:08:01;101440.53;;;17.12;88.51
69784;BME280;57054;51.978;4.498;2023-07-13T04:10:26;101437.91;;;17.12;88.85
69784;BME280;57054;51.978;4.498;2023-07-13T04:12:52;101442.22;;;17.13;88.79
69784;BME280;57054;51.978;4.498;2023-07-13T04:15:17;101441.28;;;17.14;88.65
69784;BME280;57054;51.978;4.498;2023-07-13T04:17:43;101436.94;;;17.13;88.92
69784;BME280;57054;51.978;4.498;2023-07-13T04:20:08;101439.50;;;17.15;89.13
69784;BME280;57054;51.978;4.498;2023-07-13T04:22:33;101448.28;;;17.15;88.96
69784;BME280;57054;51.978;4.498;2023-07-13T04:24:59;101444.69;;;17.16;89.08
69784;BME280;57054;51.978;4.498;2023-07-13T04:27:24;101449.91;;;17.18;89.21
69784;BME280;57054;51.978;4.498;2023-07-13T04:29:50;101451.50;;;17.20;88.92
69784;BME280;57054;51.978;4.498;2023-07-13T04:32:15;101444.53;;;17.19;89.11
69784;BME280;57054;51.978;4.498;2023-07-13T04:34:41;101447.19;;;17.19;88.95
69784;BME280;57054;51.978;4.498;2023-07-13T04:37:06;101453.22;;;17.21;88.84
69784;BME280;57054;51.978;4.498;2023-07-13T04:39:32;101453.31;;;17.20;89.01
69784;BME280;57054;51.978;4.498;2023-07-13T04:41:57;101455.19;;;17.18;89.08
69784;BME280;57054;51.978;4.498;2023-07-13T04:44:23;101461.25;;;17.20;88.97
69784;BME280;57054;51.978;4.498;2023-07-13T04:46:48;101459.44;;;17.20;88.97
69784;BME280;57054;51.978;4.498;2023-07-13T04:49:13;101456.72;;;17.22;88.60
69784;BME280;57054;51.978;4.498;2023-07-13T04:51:39;101461.84;;;17.25;88.54
69784;BME280;57054;51.978;4.498;2023-07-13T04:54:04;101463.53;;;17.26;88.48
69784;BME280;57054;51.978;4.498;2023-07-13T04:56:30;101459.94;;;17.27;88.65
69784;BME280;57054;51.978;4.498;2023-07-13T04:58:55;101459.78;;;17.30;88.14
69784;BME280;57054;51.978;4.498;2023-07-13T05:01:21;101468.47;;;17.32;88.07
69784;BME280;57054;51.978;4.498;2023-07-13T05:03:46;101474.53;;;17.34;87.86
69784;BME280;57054;51.978;4.498;2023-07-13T05:06:12;101470.00;;;17.36;87.65
69784;BME280;57054;51.978;4.498;2023-07-13T05:08:39;101468.09;;;17.38;87.62
69784;BME280;57054;51.978;4.498;2023-07-13T05:11:05;101480.31;;;17.41;87.15
69784;BME280;57054;51.978;4.498;2023-07-13T05:13:31;101476.81;;;17.40;86.67
69784;BME280;57054;51.978;4.498;2023-07-13T05:16:00;101476.72;;;17.42;86.47
69784;BME280;57054;51.978;4.498;2023-07-13T05:18:26;101472.19;;;17.44;86.14
69784;BME280;57054;51.978;4.498;2023-07-13T05:21:18;101479.09;;;17.46;85.99
69784;BME280;57054;51.978;4.498;2023-07-13T05:23:43;101484.50;;;17.45;85.86
69784;BME280;57054;51.978;4.498;2023-07-13T05:26:09;101480.03;;;17.45;85.83
69784;BME280;57054;51.978;4.498;2023-07-13T05:28:34;101485.41;;;17.44;85.60
69784;BME280;57054;51.978;4.498;2023-07-13T05:31:00;101483.66;;;17.44;85.62
69784;BME280;57054;51.978;4.498;2023-07-13T05:33:26;101494.25;;;17.44;85.74
69784;BME280;57054;51.978;4.498;2023-07-13T05:35:52;101496.00;;;17.44;85.62
69784;BME280;57054;51.978;4.498;2023-07-13T05:38:17;101491.59;;;17.44;85.56
69784;BME280;57054;51.978;4.498;2023-07-13T05:40:43;101498.56;;;17.45;85.69
69784;BME280;57054;51.978;4.498;2023-07-13T05:43:09;101496.69;;;17.48;85.58
69784;BME280;57054;51.978;4.498;2023-07-13T05:45:35;101502.72;;;17.50;85.66
69784;BME280;57054;51.978;4.498;2023-07-13T05:48:00;101502.66;;;17.51;85.55
69784;BME280;57054;51.978;4.498;2023-07-13T05:50:26;101506.06;;;17.53;85.28
69784;BME280;57054;51.978;4.498;2023-07-13T05:52:51;101513.06;;;17.54;85.31
69784;BME280;57054;51.978;4.498;2023-07-13T05:55:17;101515.72;;;17.54;85.54
69784;BME280;57054;51.978;4.498;2023-07-13T05:57:43;101505.03;;;17.56;86.39
69784;BME280;57054;51.978;4.498;2023-07-13T06:00:09;101510.34;;;17.56;86.55
69784;BME280;57054;51.978;4.498;2023-07-13T06:02:35;101513.91;;;17.55;87.26
69784;BME280;57054;51.978;4.498;2023-07-13T06:05:00;101515.81;;;17.53;87.41
69784;BME280;57054;51.978;4.498;2023-07-13T06:07:25;101522.03;;;17.52;86.96
69784;BME280;57054;51.978;4.498;2023-07-13T06:09:51;101524.88;;;17.49;86.74
69784;BME280;57054;51.978;4.498;2023-07-13T06:12:16;101523.25;;;17.46;86.84
69784;BME280;57054;51.978;4.498;2023-07-13T06:14:42;101526.00;;;17.44;86.79
69784;BME280;57054;51.978;4.498;2023-07-13T06:17:08;101535.81;;;17.42;86.68
69784;BME280;57054;51.978;4.498;2023-07-13T06:19:34;101535.94;;;17.41;86.68
69784;BME280;57054;51.978;4.498;2023-07-13T06:21:59;101529.00;;;17.38;86.26
69784;BME280;57054;51.978;4.498;2023-07-13T06:24:25;101533.44;;;17.38;86.43
69784;BME280;57054;51.978;4.498;2023-07-13T06:26:50;101535.06;;;17.40;86.87
69784;BME280;57054;51.978;4.498;2023-07-13T06:29:16;101534.97;;;17.42;87.13
69784;BME280;57054;51.978;4.498;2023-07-13T06:31:41;101533.06;;;17.44;87.23
69784;BME280;57054;51.978;4.498;2023-07-13T06:34:06;101534.88;;;17.43;86.76
69784;BME280;57054;51.978;4.498;2023-07-13T06:36:32;101546.41;;;17.42;86.20
69784;BME280;57054;51.978;4.498;2023-07-13T06:38:57;101549.94;;;17.43;86.58
69784;BME280;57054;51.978;4.498;2023-07-13T06:41:23;101546.22;;;17.45;86.61
69784;BME280;57054;51.978;4.498;2023-07-13T06:43:51;101554.00;;;17.49;86.67
69784;BME280;57054;51.978;4.498;2023-07-13T06:46:16;101551.28;;;17.50;86.41
69784;BME280;57054;51.978;4.498;2023-07-13T06:48:42;101545.00;;;17.51;86.04
69784;BME280;57054;51.978;4.498;2023-07-13T06:51:08;101551.06;;;17.53;85.80
69784;BME280;57054;51.978;4.498;2023-07-13T06:53:33;101550.81;;;17.58;86.05
69784;BME280;57054;51.978;4.498;2023-07-13T06:55:59;101548.66;;;17.64;85.87
69784;BME280;57054;51.978;4.498;2023-07-13T06:58:24;101561.44;;;17.72;85.39
69784;BME280;57054;51.978;4.498;2023-07-13T07:00:52;101564.69;;;17.77;84.92
69784;BME280;57054;51.978;4.498;2023-07-13T07:03:18;101561.81;;;17.80;84.29
69784;BME280;57054;51.978;4.498;2023-07-13T07:05:43;101562.44;;;17.86;83.79
69784;BME280;57054;51.978;4.498;2023-07-13T07:08:09;101561.31;;;17.90;83.79
69784;BME280;57054;51.978;4.498;2023-07-13T07:10:35;101555.75;;;17.94;83.75
69784;BME280;57054;51.978;4.498;2023-07-13T07:13:01;101559.72;;;18.01;82.60
69784;BME280;57054;51.978;4.498;2023-07-13T07:15:27;101565.59;;;18.07;82.75
69784;BME280;57054;51.978;4.498;2023-07-13T07:17:53;101565.41;;;18.10;82.58
69784;BME280;57054;51.978;4.498;2023-07-13T07:20:18;101566.28;;;18.10;82.27
69784;BME280;57054;51.978;4.498;2023-07-13T07:22:45;101575.06;;;18.11;82.03
69784;BME280;57054;51.978;4.498;2023-07-13T07:25:10;101576.13;;;18.08;81.75
69784;BME280;57054;51.978;4.498;2023-07-13T07:27:36;101579.88;;;18.04;81.16
69784;BME280;57054;51.978;4.498;2023-07-13T07:30:01;101575.63;;;18.01;81.23
69784;BME280;57054;51.978;4.498;2023-07-13T07:32:29;101579.13;;;18.02;80.96
69784;BME280;57054;51.978;4.498;2023-07-13T07:34:56;101583.41;;;18.05;80.97
69784;BME280;57054;51.978;4.498;2023-07-13T07:37:22;101580.47;;;18.09;81.20
69784;BME280;57054;51.978;4.498;2023-07-13T07:39:47;101579.22;;;18.15;80.92
69784;BME280;57054;51.978;4.498;2023-07-13T07:42:13;101588.69;;;18.19;80.78
69784;BME280;57054;51.978;4.498;2023-07-13T07:44:40;101597.44;;;18.21;80.53
69784;BME280;57054;51.978;4.498;2023-07-13T07:47:06;101593.06;;;18.20;80.75
69784;BME280;57054;51.978;4.498;2023-07-13T07:49:32;101594.13;;;18.17;81.47
69784;BME280;57054;51.978;4.498;2023-07-13T07:51:57;101596.84;;;18.16;81.67
69784;BME280;57054;51.978;4.498;2023-07-13T07:54:23;101603.09;;;18.15;81.60
69784;BME280;57054;51.978;4.498;2023-07-13T07:56:48;101601.09;;;18.18;81.89
69784;BME280;57054;51.978;4.498;2023-07-13T07:59:14;101603.66;;;18.20;81.96
69784;BME280;57054;51.978;4.498;2023-07-13T08:01:39;101596.56;;;18.20;81.97
69784;BME280;57054;51.978;4.498;2023-07-13T08:04:05;101600.19;;;18.19;81.46
69784;BME280;57054;51.978;4.498;2023-07-13T08:06:32;101604.72;;;18.17;81.34
69784;BME280;57054;51.978;4.498;2023-07-13T08:08:59;101603.00;;;18.16;81.19
69784;BME280;57054;51.978;4.498;2023-07-13T08:11:24;101602.91;;;18.18;81.29
69784;BME280;57054;51.978;4.498;2023-07-13T08:13:49;101602.91;;;18.18;81.34
69784;BME280;57054;51.978;4.498;2023-07-13T08:16:15;101604.50;;;18.20;80.93
69784;BME280;57054;51.978;4.498;2023-07-13T08:18:40;101594.56;;;18.24;81.18
69784;BME280;57054;51.978;4.498;2023-07-13T08:21:06;101605.59;;;18.32;81.31
69784;BME280;57054;51.978;4.498;2023-07-13T08:23:33;101603.78;;;18.33;80.63
69784;BME280;57054;51.978;4.498;2023-07-13T08:25:58;101606.44;;;18.33;80.46
69784;BME280;57054;51.978;4.498;2023-07-13T08:28:26;101606.44;;;18.33;80.62
69784;BME280;57054;51.978;4.498;2023-07-13T08:30:52;101603.88;;;18.31;80.80
69784;BME280;57054;51.978;4.498;2023-07-13T08:33:19;101611.91;;;18.30;80.76
69784;BME280;57054;51.978;4.498;2023-07-13T08:35:49;101611.06;;;18.29;80.88
69784;BME280;57054;51.978;4.498;2023-07-13T08:38:15;101613.81;;;18.28;80.75
69784;BME280;57054;51.978;4.498;2023-07-13T08:40:41;101609.38;;;18.28;80.45
69784;BME280;57054;51.978;4.498;2023-07-13T08:43:13;101614.69;;;18.28;80.26
69784;BME280;57054;51.978;4.498;2023-07-13T08:45:50;101617.34;;;18.28;80.12
69784;BME280;57054;51.978;4.498;2023-07-13T08:48:21;101618.25;;;18.27;78.38
69784;BME280;57054;51.978;4.498;2023-07-13T08:50:52;101614.38;;;18.33;79.13
69784;BME280;57054;51.978;4.498;2023-07-13T08:53:21;101615.63;;;18.41;79.13
69784;BME280;57054;51.978;4.498;2023-07-13T08:55:51;101606.25;;;18.50;78.88
69784;BME280;57054;51.978;4.498;2023-07-13T08:58:18;101612.88;;;18.57;78.27
69784;BME280;57054;51.978;4.498;2023-07-13T09:03:15;101616.84;;;18.65;78.04
69784;BME280;57054;51.978;4.498;2023-07-13T09:05:51;101624.50;;;18.69;77.28
69784;BME280;57054;51.978;4.498;2023-07-13T09:16:03;101635.03;;;18.56;77.31
69784;BME280;57054;51.978;4.498;2023-07-13T09:18:38;101634.38;;;18.53;77.65
69784;BME280;57054;51.978;4.498;2023-07-13T09:21:09;101637.88;;;18.53;78.30
69784;BME280;57054;51.978;4.498;2023-07-13T09:23:36;101647.53;;;18.54;78.38
69784;BME280;57054;51.978;4.498;2023-07-13T09:26:19;101654.75;;;18.52;77.37
69784;BME280;57054;51.978;4.498;2023-07-13T09:28:52;101642.97;;;18.42;75.87
69784;BME280;57054;51.978;4.498;2023-07-13T09:31:26;101645.16;;;18.35;76.69
69784;BME280;57054;51.978;4.498;2023-07-13T09:33:54;101638.34;;;18.31;77.91
69784;BME280;57054;51.978;4.498;2023-07-13T09:36:31;101651.69;;;18.30;78.79
69784;BME280;57054;51.978;4.498;2023-07-13T09:44:17;101655.88;;;18.34;80.71
69784;BME280;57054;51.978;4.498;2023-07-13T09:46:45;101653.59;;;18.42;80.91
69784;BME280;57054;51.978;4.498;2023-07-13T09:49:11;101662.78;;;18.51;81.41
69784;BME280;57054;51.978;4.498;2023-07-13T09:51:38;101656.16;;;18.58;81.43
69784;BME280;57054;51.978;4.498;2023-07-13T09:54:04;101660.81;;;18.69;81.24
69784;BME280;57054;51.978;4.498;2023-07-13T09:56:30;101666.47;;;18.77;81.08
69784;BME280;57054;51.978;4.498;2023-07-13T09:58:56;101662.44;;;18.86;81.15
69784;BME280;57054;51.978;4.498;2023-07-13T10:01:34;101667.56;;;18.89;79.63
69784;BME280;57054;51.978;4.498;2023-07-13T10:04:00;101666.31;;;18.94;80.18
69784;BME280;57054;51.978;4.498;2023-07-13T10:06:25;101666.81;;;19.01;79.93
69784;BME280;57054;51.978;4.498;2023-07-13T10:08:56;101676.19;;;19.07;79.34
69784;BME280;57054;51.978;4.498;2023-07-13T10:11:26;101670.56;;;19.11;78.72
69784;BME280;57054;51.978;4.498;2023-07-13T10:16:28;101677.75;;;19.24;78.79
69784;BME280;57054;51.978;4.498;2023-07-13T10:18:59;101668.63;;;19.28;77.69
69784;BME280;57054;51.978;4.498;2023-07-13T10:21:32;101685.13;;;19.33;77.78
69784;BME280;57054;51.978;4.498;2023-07-13T10:24:06;101683.13;;;19.36;77.89
69784;BME280;57054;51.978;4.498;2023-07-13T10:26:37;101688.91;;;19.43;77.49
69784;BME280;57054;51.978;4.498;2023-07-13T10:29:11;101693.06;;;19.47;77.37
69784;BME280;57054;51.978;4.498;2023-07-13T10:31:38;101692.97;;;19.49;77.33
69784;BME280;57054;51.978;4.498;2023-07-13T10:34:04;101700.94;;;19.49;76.98
69784;BME280;57054;51.978;4.498;2023-07-13T10:36:57;101703.59;;;19.49;75.02
69784;BME280;57054;51.978;4.498;2023-07-13T10:39:26;101705.28;;;19.50;73.98
69784;BME280;57054;51.978;4.498;2023-07-13T10:42:03;101707.84;;;19.51;73.72
69784;BME280;57054;51.978;4.498;2023-07-13T10:44:32;101703.41;;;19.52;73.63
69784;BME280;57054;51.978;4.498;2023-07-13T10:47:03;101706.72;;;19.55;73.85
69784;BME280;57054;51.978;4.498;2023-07-13T10:49:32;101701.16;;;19.59;72.37
69784;BME280;57054;51.978;4.498;2023-07-13T10:51:58;101713.28;;;19.63;72.02
69784;BME280;57054;51.978;4.498;2023-07-13T10:54:30;101710.34;;;19.67;72.53
69784;BME280;57054;51.978;4.498;2023-07-13T10:57:16;101703.88;;;19.71;72.81
69784;BME280;57054;51.978;4.498;2023-07-13T10:59:44;101708.44;;;19.69;73.13
69784;BME280;57054;51.978;4.498;2023-07-13T11:02:25;101730.03;;;19.65;71.17
69784;BME280;57054;51.978;4.498;2023-07-13T11:04:52;101721.25;;;19.63;71.50
69784;BME280;57054;51.978;4.498;2023-07-13T11:07:22;101721.41;;;19.61;71.15
69784;BME280;57054;51.978;4.498;2023-07-13T11:09:53;101725.00;;;19.60;70.35
69784;BME280;57054;51.978;4.498;2023-07-13T11:19:53;101723.25;;;19.73;71.26
69784;BME280;57054;51.978;4.498;2023-07-13T11:22:25;101719.56;;;19.76;70.99
69784;BME280;57054;51.978;4.498;2023-07-13T11:25:06;101728.28;;;19.78;69.17
69784;BME280;57054;51.978;4.498;2023-07-13T11:27:49;101717.56;;;19.80;69.86
69784;BME280;57054;51.978;4.498;2023-07-13T11:30:48;101721.81;;;19.82;69.48
69784;BME280;57054;51.978;4.498;2023-07-13T11:35:59;101716.22;;;19.87;69.96
69784;BME280;57054;51.978;4.498;2023-07-13T11:38:37;101720.56;;;19.88;69.68
69784;BME280;57054;51.978;4.498;2023-07-13T11:41:06;101724.94;;;19.89;69.73
69784;BME280;57054;51.978;4.498;2023-07-13T11:43:33;101717.69;;;19.91;69.81
69784;BME280;57054;51.978;4.498;2023-07-13T11:46:15;101710.28;;;19.96;69.46
69784;BME280;57054;51.978;4.498;2023-07-13T11:48:41;101722.50;;;19.99;69.84
69784;BME280;57054;51.978;4.498;2023-07-13T11:51:23;101717.94;;;20.01;69.64
69784;BME280;57054;51.978;4.498;2023-07-13T11:53:52;101724.88;;;20.03;69.29
69784;BME280;57054;51.978;4.498;2023-07-13T11:56:18;101729.13;;;20.06;68.92
69784;BME280;57054;51.978;4.498;2023-07-13T11:58:48;101741.47;;;20.07;68.63
69784;BME280;57054;51.978;4.498;2023-07-13T12:01:21;101729.84;;;20.08;68.41
69784;BME280;57054;51.978;4.498;2023-07-13T12:03:48;101724.63;;;20.06;67.17
69784;BME280;57054;51.978;4.498;2023-07-13T12:06:34;101727.44;;;20.05;67.35
69784;BME280;57054;51.978;4.498;2023-07-13T12:09:11;101727.44;;;20.05;67.44
69784;BME280;57054;51.978;4.498;2023-07-13T12:11:40;101730.09;;;20.05;67.86
69784;BME280;57054;51.978;4.498;2023-07-13T12:14:05;101737.00;;;20.07;67.86
69784;BME280;57054;51.978;4.498;2023-07-13T12:16:32;101739.56;;;20.09;67.70
69784;BME280;57054;51.978;4.498;2023-07-13T12:19:02;101732.31;;;20.11;67.70
69784;BME280;57054;51.978;4.498;2023-07-13T12:21:39;101728.50;;;20.15;67.73
69784;BME280;57054;51.978;4.498;2023-07-13T12:24:14;101730.22;;;20.16;67.71
69784;BME280;57054;51.978;4.498;2023-07-13T12:26:40;101729.25;;;20.17;66.94
69784;BME280;57054;51.978;4.498;2023-07-13T12:29:06;101728.19;;;20.20;67.50
69784;BME280;57054;51.978;4.498;2023-07-13T12:31:34;101728.09;;;20.21;66.89
69784;BME280;57054;51.978;4.498;2023-07-13T12:34:14;101732.34;;;20.24;66.44
69784;BME280;57054;51.978;4.498;2023-07-13T12:36:46;101727.78;;;20.26;66.85
69784;BME280;57054;51.978;4.498;2023-07-13T12:39:16;101723.19;;;20.28;67.19
69784;BME280;57054;51.978;4.498;2023-07-13T12:41:42;101723.09;;;20.29;67.39
69784;BME280;57054;51.978;4.498;2023-07-13T12:44:11;101721.28;;;20.30;66.44
69784;BME280;57054;51.978;4.498;2023-07-13T12:46:38;101726.59;;;20.30;66.12
69784;BME280;57054;51.978;4.498;2023-07-13T12:49:05;101721.28;;;20.30;66.36
69784;BME280;57054;51.978;4.498;2023-07-13T12:51:32;101739.81;;;20.31;66.85
69784;BME280;57054;51.978;4.498;2023-07-13T12:54:27;101730.03;;;20.32;65.35
69784;BME280;57054;51.978;4.498;2023-07-13T12:56:52;101730.03;;;20.32;65.14
69784;BME280;57054;51.978;4.498;2023-07-13T12:59:20;101726.41;;;20.33;65.03
69784;BME280;57054;51.978;4.498;2023-07-13T13:01:48;101738.66;;;20.36;65.16
69784;BME280;57054;51.978;4.498;2023-07-13T13:04:15;101731.53;;;20.36;64.39
69784;BME280;57054;51.978;4.498;2023-07-13T13:06:41;101733.22;;;20.37;64.88
69784;BME280;57054;51.978;4.498;2023-07-13T13:09:13;101743.66;;;20.40;65.32
69784;BME280;57054;51.978;4.498;2023-07-13T13:11:39;101739.19;;;20.41;64.20
69784;BME280;57054;51.978;4.498;2023-07-13T13:14:05;101743.47;;;20.43;64.87
69784;BME280;57054;51.978;4.498;2023-07-13T13:16:34;101744.09;;;20.47;65.38
69784;BME280;57054;51.978;4.498;2023-07-13T13:19:16;101756.22;;;20.51;65.54
69784;BME280;57054;51.978;4.498;2023-07-13T13:21:43;101754.22;;;20.55;65.29
69784;BME280;57054;51.978;4.498;2023-07-13T13:24:16;101744.31;;;20.57;65.14
69784;BME280;57054;51.978;4.498;2023-07-13T13:26:43;101751.25;;;20.59;65.40